Time;durP1;ratioP1;P1;durP2;ratioP2;P2;SDS_P1;SDS_P2;PMS_P1;PMS_P2;Temp;Humidity;BMP_temperature;BMP_pressure;BME280_temperature;BME280_humidity;BME280_pressure;Samples;Min_cycle;Max_cycle;Signal;HPM_P1;HPM_P2
2023/05/05 03:02:45;;;;;;;14.70;13.60;;;11.10;99.90;;;;;;4963693;29;20227;-77
2023/05/05 03:05:18;;;;;;;13.73;12.80;;;11.10;99.90;;;;;;4970024;29;20182;-78
2023/05/05 03:07:53;;;;;;;14.67;13.40;;;11.10;99.90;;;;;;4963960;29;20186;-78
2023/05/05 03:10:25;;;;;;;15.00;13.80;;;11.10;99.90;;;;;;4973579;28;20184;-78
2023/05/05 03:12:54;;;;;;;14.93;13.43;;;11.10;99.90;;;;;;4955669;29;20185;-78
2023/05/05 03:15:41;;;;;;;12.57;11.47;;;11.10;99.90;;;;;;5019612;23;20232;-80
2023/05/05 03:18:09;;;;;;;14.23;12.87;;;11.00;99.90;;;;;;5015121;28;20202;-79
2023/05/05 03:20:39;;;;;;;14.03;12.93;;;11.00;99.90;;;;;;5011690;28;20213;-79
2023/05/05 03:23:22;;;;;;;14.20;13.20;;;11.00;99.90;;;;;;5002140;28;20234;-81
2023/05/05 03:25:50;;;;;;;16.40;15.03;;;11.00;99.90;;;;;;5001669;28;20187;-82
2023/05/05 03:28:17;;;;;;;15.07;13.87;;;11.00;99.90;;;;;;5008944;28;20180;-80
2023/05/05 03:30:43;;;;;;;15.47;14.23;;;10.90;99.90;;;;;;5001198;28;20269;-81
2023/05/05 03:33:10;;;;;;;15.20;13.93;;;10.90;99.90;;;;;;4989298;28;20576;-80
2023/05/05 03:35:36;;;;;;;14.27;13.27;;;10.90;99.90;;;;;;4989633;28;20216;-83
2023/05/05 03:38:01;;;;;;;14.90;13.80;;;10.80;99.90;;;;;;4990819;28;20181;-82
2023/05/05 03:40:28;;;;;;;16.37;14.80;;;10.90;99.90;;;;;;4985728;28;20185;-82
2023/05/05 03:42:53;;;;;;;16.60;15.40;;;10.80;99.90;;;;;;4970770;28;20217;-81
2023/05/05 03:45:19;;;;;;;16.80;15.20;;;10.80;99.90;;;;;;4972011;28;20210;-81
2023/05/05 03:47:45;;;;;;;17.23;15.93;;;10.90;99.90;;;;;;4971048;28;20206;-80
2023/05/05 03:50:12;;;;;;;20.90;19.50;;;10.90;99.90;;;;;;4973199;28;20193;-81
2023/05/05 03:52:38;;;;;;;28.53;26.77;;;10.90;99.90;;;;;;4989390;28;20181;-82
2023/05/05 03:55:04;;;;;;;26.60;24.77;;;10.90;99.90;;;;;;4989702;28;20216;-81
2023/05/05 03:57:30;;;;;;;31.63;29.70;;;10.90;99.90;;;;;;4992082;28;20196;-81
2023/05/05 03:59:56;;;;;;;29.23;27.37;;;10.90;99.90;;;;;;4991902;28;20269;-81
2023/05/05 04:02:22;;;;;;;27.77;25.90;;;10.90;99.90;;;;;;4971805;28;20236;-80
2023/05/05 04:04:47;;;;;;;38.03;35.83;;;11.00;99.90;;;;;;4969446;28;20257;-80
2023/05/05 04:07:13;;;;;;;39.60;37.23;;;11.00;99.90;;;;;;4971062;28;20586;-80
2023/05/05 04:09:43;;;;;;;54.17;50.70;;;11.10;99.90;;;;;;4971322;28;20185;-82
2023/05/05 04:12:12;;;;;;;60.93;57.33;;;11.20;99.90;;;;;;4980889;28;20198;-78
2023/05/05 04:14:38;;;;;;;18.27;16.97;;;11.30;99.90;;;;;;4993781;28;20212;-80
2023/05/05 04:17:05;;;;;;;18.50;17.10;;;11.40;99.90;;;;;;4993344;28;20189;-79
2023/05/05 04:19:31;;;;;;;17.63;16.33;;;11.50;99.90;;;;;;4991620;28;20184;-79
2023/05/05 04:21:58;;;;;;;17.60;15.97;;;11.50;99.90;;;;;;4993389;28;20248;-79
2023/05/05 04:24:24;;;;;;;19.23;17.77;;;11.50;99.90;;;;;;4990225;28;20201;-80
2023/05/05 04:26:53;;;;;;;20.20;18.60;;;11.50;99.90;;;;;;4989894;28;20196;-79
2023/05/05 04:29:19;;;;;;;22.10;20.67;;;11.60;99.90;;;;;;4976449;28;20213;-80
2023/05/05 04:31:44;;;;;;;35.13;32.83;;;11.70;99.90;;;;;;4993633;28;20196;-79
2023/05/05 04:34:10;;;;;;;33.10;31.10;;;11.90;99.90;;;;;;4996736;28;20264;-78
2023/05/05 04:36:36;;;;;;;20.93;19.23;;;12.00;99.90;;;;;;4996883;28;20200;-78
2023/05/05 04:39:02;;;;;;;11.17;10.17;;;12.10;99.90;;;;;;4985936;28;20187;-76
2023/05/05 04:41:28;;;;;;;11.13;9.07;;;12.20;99.90;;;;;;4989845;28;20215;-78
2023/05/05 04:43:54;;;;;;;11.67;9.40;;;12.30;99.90;;;;;;4994065;28;20207;-78
2023/05/05 04:46:20;;;;;;;9.70;8.73;;;12.40;99.90;;;;;;4994114;28;20180;-77
2023/05/05 04:48:46;;;;;;;10.47;8.57;;;12.40;99.90;;;;;;4980651;28;20255;-78
2023/05/05 04:51:12;;;;;;;10.67;9.70;;;12.50;99.90;;;;;;4973997;28;20181;-78
2023/05/05 04:53:38;;;;;;;10.07;9.27;;;12.60;99.90;;;;;;4982954;28;20200;-76
2023/05/05 04:56:04;;;;;;;13.43;12.30;;;12.70;99.90;;;;;;4984772;28;20740;-77
2023/05/05 04:58:30;;;;;;;29.90;28.03;;;13.00;99.90;;;;;;4975193;28;20177;-77
2023/05/05 05:00:56;;;;;;;34.87;32.63;;;13.10;99.90;;;;;;4973831;28;20181;-75
2023/05/05 05:03:22;;;;;;;20.00;18.47;;;13.40;99.90;;;;;;4975210;28;20201;-77
2023/05/05 05:05:48;;;;;;;16.07;14.90;;;13.60;99.90;;;;;;4972805;28;20236;-77
2023/05/05 05:08:17;;;;;;;9.47;8.63;;;13.90;99.90;;;;;;4969839;28;20189;-77
2023/05/05 05:10:43;;;;;;;9.00;7.93;;;14.20;99.90;;;;;;4956769;28;20182;-77
2023/05/05 05:13:09;;;;;;;9.80;9.00;;;14.40;99.90;;;;;;4961242;29;20662;-78
2023/05/05 05:15:38;;;;;;;12.70;11.57;;;14.40;99.90;;;;;;4960650;28;20321;-79
2023/05/05 05:18:04;;;;;;;12.63;11.57;;;14.70;99.90;;;;;;4959386;28;20192;-79
2023/05/05 05:20:30;;;;;;;10.57;8.73;;;14.80;99.90;;;;;;4975121;28;20267;-79
2023/05/05 05:22:56;;;;;;;9.43;8.63;;;14.80;99.90;;;;;;4975728;28;20208;-80
2023/05/05 05:25:22;;;;;;;9.00;8.20;;;14.70;99.90;;;;;;4973640;28;20211;-77
2023/05/05 05:27:48;;;;;;;9.67;8.73;;;14.60;99.90;;;;;;4965965;28;20182;-77
2023/05/05 05:30:14;;;;;;;10.17;9.07;;;14.50;99.90;;;;;;4953811;29;20826;-77
2023/05/05 05:32:40;;;;;;;13.33;12.23;;;14.80;99.90;;;;;;4953391;28;20553;-78
2023/05/05 05:35:06;;;;;;;16.23;14.77;;;15.30;99.90;;;;;;4953481;28;20206;-79
2023/05/05 05:37:33;;;;;;;47.90;45.10;;;15.80;99.90;;;;;;4954203;28;20268;-73
2023/05/05 05:39:59;;;;;;;27.80;25.87;;;16.20;99.90;;;;;;4971594;28;20665;-73
2023/05/05 05:42:25;;;;;;;28.43;26.60;;;16.40;99.90;;;;;;4971106;28;20223;-73
2023/05/05 05:44:51;;;;;;;12.63;11.57;;;16.50;99.90;;;;;;4969720;28;20292;-72
2023/05/05 05:47:17;;;;;;;13.17;11.27;;;16.80;99.90;;;;;;4970962;28;20173;-72
2023/05/05 05:49:43;;;;;;;11.48;9.45;;;17.10;99.90;;;;;;4951692;28;20186;-72
2023/05/05 05:52:09;;;;;;;13.25;12.10;;;17.60;99.90;;;;;;4952148;28;20552;-72
2023/05/05 05:54:35;;;;;;;12.02;10.82;;;18.10;99.90;;;;;;4952096;28;20682;-73
2023/05/05 05:57:03;;;;;;;12.13;11.07;;;18.50;99.90;;;;;;4951894;28;20185;-73
2023/05/05 05:59:29;;;;;;;14.60;13.50;;;18.80;99.90;;;;;;4968974;28;20272;-72
2023/05/05 06:01:55;;;;;;;17.02;15.73;;;19.00;99.90;;;;;;4971752;28;20207;-73
2023/05/05 06:04:21;;;;;;;17.73;16.25;;;19.10;99.90;;;;;;4973585;28;20689;-79
2023/05/05 06:06:47;;;;;;;15.25;14.13;;;19.30;99.90;;;;;;4979013;28;20185;-79
2023/05/05 06:09:13;;;;;;;11.75;10.70;;;19.70;99.90;;;;;;4980672;28;20868;-81
2023/05/05 06:11:39;;;;;;;13.85;12.95;;;20.10;99.90;;;;;;4976835;28;20197;-78
2023/05/05 06:14:05;;;;;;;14.55;13.52;;;20.30;99.90;;;;;;4978384;28;20221;-78
2023/05/05 06:16:30;;;;;;;23.13;21.23;;;20.20;99.90;;;;;;4977081;28;20192;-79
2023/05/05 06:18:56;;;;;;;20.33;19.02;;;20.50;99.90;;;;;;4974647;28;20181;-79
2023/05/05 06:21:22;;;;;;;13.85;12.80;;;20.80;99.90;;;;;;4969440;28;20222;-79
2023/05/05 06:23:48;;;;;;;10.20;9.50;;;21.00;99.90;;;;;;4973059;28;20228;-79
2023/05/05 06:26:14;;;;;;;14.40;13.18;;;21.20;99.90;;;;;;4975769;28;20591;-80
2023/05/05 06:28:40;;;;;;;11.48;10.57;;;21.10;99.90;;;;;;4978094;28;20250;-79
2023/05/05 06:31:06;;;;;;;13.00;12.07;;;21.00;99.90;;;;;;4979507;28;20264;-80
2023/05/05 06:33:32;;;;;;;12.93;12.07;;;21.10;99.90;;;;;;4980091;28;20216;-80
2023/05/05 06:35:58;;;;;;;9.70;8.85;;;21.40;99.90;;;;;;4978882;28;20232;-80
2023/05/05 06:38:24;;;;;;;9.27;8.48;;;21.80;99.90;;;;;;4972836;28;20277;-80
2023/05/05 06:40:49;;;;;;;17.50;16.30;;;22.20;99.90;;;;;;4974550;28;20189;-79
2023/05/05 06:43:16;;;;;;;13.95;12.85;;;23.00;99.90;;;;;;4987455;28;20181;-80
2023/05/05 06:45:42;;;;;;;15.20;13.82;;;23.20;99.90;;;;;;4984073;28;20220;-80
2023/05/05 06:48:08;;;;;;;16.73;15.45;;;23.50;99.90;;;;;;4983614;28;20196;-81
2023/05/05 06:50:34;;;;;;;13.00;11.82;;;23.70;99.90;;;;;;4984182;28;20181;-80
2023/05/05 06:53:00;;;;;;;16.05;14.60;;;23.50;99.90;;;;;;4982022;28;20213;-80
2023/05/05 06:55:25;;;;;;;10.43;9.65;;;23.20;99.90;;;;;;4981009;28;20197;-80
2023/05/05 06:57:51;;;;;;;10.07;7.63;;;23.80;99.90;;;;;;4965412;28;20190;-80
2023/05/05 07:00:18;;;;;;;9.00;8.15;;;24.30;99.90;;;;;;4963572;29;20657;-81
2023/05/05 07:02:44;;;;;;;7.78;7.07;;;24.20;99.60;;;;;;4965850;28;20218;-79
2023/05/05 07:05:09;;;;;;;10.43;9.63;;;23.60;99.80;;;;;;4963964;29;20197;-80
2023/05/05 07:07:35;;;;;;;17.13;15.68;;;22.70;99.90;;;;;;4978196;28;20183;-79
2023/05/05 07:10:01;;;;;;;25.77;24.25;;;22.50;99.90;;;;;;4986358;28;20267;-79
2023/05/05 07:12:31;;;;;;;15.65;14.55;;;22.20;99.90;;;;;;4981427;28;20664;-79
2023/05/05 07:14:57;;;;;;;8.75;8.15;;;22.10;99.90;;;;;;4987581;28;20200;-77
2023/05/05 07:17:23;;;;;;;9.15;7.78;;;21.80;99.90;;;;;;4977867;28;20178;-78
2023/05/05 07:19:50;;;;;;;9.15;8.40;;;21.80;99.90;;;;;;4975429;28;20178;-79
2023/05/05 07:22:15;;;;;;;8.82;8.32;;;21.70;99.90;;;;;;4970973;29;20231;-79
2023/05/05 07:24:41;;;;;;;8.55;7.80;;;21.80;99.90;;;;;;4975695;28;20236;-79
2023/05/05 07:27:07;;;;;;;7.07;6.53;;;21.90;99.90;;;;;;4976454;28;20182;-80
2023/05/05 07:29:33;;;;;;;7.22;6.72;;;21.90;99.90;;;;;;4973997;28;20657;-78
2023/05/05 07:31:59;;;;;;;7.93;6.85;;;22.20;99.90;;;;;;4985522;28;20212;-81
2023/05/05 07:34:25;;;;;;;10.80;9.95;;;23.30;99.90;;;;;;4990568;28;20209;-79
2023/05/05 07:36:55;;;;;;;13.45;12.65;;;24.20;99.90;;;;;;4981769;28;20177;-80
2023/05/05 07:39:21;;;;;;;7.85;6.97;;;25.20;99.90;;;;;;4988388;28;20251;-80
2023/05/05 07:41:46;;;;;;;12.95;12.25;;;25.50;99.90;;;;;;4981308;28;20579;-78
2023/05/05 07:44:12;;;;;;;23.27;21.58;;;25.60;98.70;;;;;;4977223;28;20205;-78
2023/05/05 07:46:38;;;;;;;23.60;22.17;;;25.70;98.60;;;;;;4975808;28;20181;-78
2023/05/05 07:49:04;;;;;;;34.15;32.22;;;25.80;97.90;;;;;;4976900;28;20189;-79
2023/05/05 07:51:30;;;;;;;34.63;31.92;;;25.60;97.80;;;;;;4980832;28;20216;-79
2023/05/05 07:53:56;;;;;;;36.38;33.88;;;25.40;98.30;;;;;;4980681;28;20233;-79
2023/05/05 07:56:22;;;;;;;35.25;33.38;;;25.10;97.70;;;;;;4976088;28;20189;-80
2023/05/05 07:58:48;;;;;;;27.08;25.48;;;25.10;98.00;;;;;;4977109;28;20807;-79
2023/05/05 08:01:13;;;;;;;25.20;23.40;;;25.30;98.80;;;;;;4976938;28;20251;-79
2023/05/05 08:03:40;;;;;;;32.00;30.08;;;25.70;98.80;;;;;;4973855;28;20533;-79
2023/05/05 08:06:08;;;;;;;27.60;25.88;;;26.20;98.00;;;;;;4973233;28;20291;-77
2023/05/05 08:08:34;;;;;;;28.05;26.55;;;26.20;97.60;;;;;;4965807;28;20209;-79
2023/05/05 08:11:00;;;;;;;25.90;23.98;;;26.10;98.20;;;;;;4965324;28;20245;-79
2023/05/05 08:13:27;;;;;;;23.38;22.08;;;25.40;98.60;;;;;;4966735;28;20213;-79
2023/05/05 08:15:53;;;;;;;15.55;14.50;;;24.70;99.10;;;;;;4966712;28;20190;-80
2023/05/05 08:18:18;;;;;;;10.68;9.88;;;24.20;99.90;;;;;;4985748;28;20192;-80
2023/05/05 08:20:44;;;;;;;8.45;7.60;;;23.90;99.90;;;;;;4987050;28;20205;-81
2023/05/05 08:23:10;;;;;;;6.43;5.78;;;24.10;99.90;;;;;;4990554;28;20280;-80
2023/05/05 08:25:36;;;;;;;14.43;9.98;;;24.80;99.90;;;;;;4996670;28;20193;-80
2023/05/05 08:28:02;;;;;;;14.57;13.18;;;25.30;99.90;;;;;;4989779;28;20181;-80
2023/05/05 08:30:28;;;;;;;14.63;13.30;;;25.10;99.90;;;;;;4990238;28;20205;-80
2023/05/05 08:32:54;;;;;;;10.23;9.55;;;24.60;99.90;;;;;;4988835;28;20185;-80
2023/05/05 08:35:20;;;;;;;9.23;8.32;;;24.20;99.90;;;;;;4985572;28;20215;-81
2023/05/05 08:37:45;;;;;;;11.73;10.82;;;23.80;99.90;;;;;;4986760;28;20181;-80
2023/05/05 08:40:13;;;;;;;19.05;17.75;;;23.40;99.90;;;;;;4991708;28;20188;-80
2023/05/05 08:42:40;;;;;;;11.40;10.70;;;23.20;99.90;;;;;;4989939;28;20243;-80
2023/05/05 08:45:07;;;;;;;6.50;6.10;;;22.70;99.90;;;;;;4986416;28;20271;-81
2023/05/05 08:47:34;;;;;;;6.93;6.22;;;22.40;99.90;;;;;;4984358;28;20181;-80
2023/05/05 08:50:01;;;;;;;9.13;8.32;;;22.10;99.90;;;;;;4984530;28;20176;-80
2023/05/05 08:52:31;;;;;;;10.70;9.90;;;22.00;99.90;;;;;;4982528;28;20192;-80
2023/05/05 08:55:07;;;;;;;22.20;20.92;;;21.80;99.90;;;;;;4980742;28;20209;-80
2023/05/05 08:57:44;;;;;;;8.07;7.47;;;21.60;99.90;;;;;;4971368;28;20566;-80
2023/05/05 09:00:12;;;;;;;5.68;5.18;;;21.30;99.90;;;;;;4961455;28;20363;-80
2023/05/05 09:02:39;;;;;;;7.80;7.40;;;21.10;99.90;;;;;;4965458;28;20205;-80
2023/05/05 09:05:05;;;;;;;11.60;10.80;;;20.90;99.90;;;;;;4964388;28;20206;-80
2023/05/05 09:07:32;;;;;;;15.88;14.95;;;20.70;99.90;;;;;;4974204;28;20185;-79
2023/05/05 09:10:01;;;;;;;26.33;24.83;;;20.60;99.90;;;;;;4983325;28;20200;-80
2023/05/05 09:12:31;;;;;;;42.50;40.25;;;20.50;99.90;;;;;;4981319;28;20188;-81
2023/05/05 09:14:57;;;;;;;39.83;37.78;;;20.30;99.90;;;;;;4992689;23;20220;-73
2023/05/05 09:17:24;;;;;;;24.88;22.88;;;20.30;99.90;;;;;;4980988;28;20668;-76
2023/05/05 09:20:06;;;;;;;24.00;22.48;;;20.30;99.90;;;;;;4990643;28;20180;-74
2023/05/05 09:22:37;;;;;;;44.63;42.22;;;20.50;99.90;;;;;;4991951;28;20223;-74
2023/05/05 09:25:05;;;;;;;53.20;50.50;;;20.60;99.90;;;;;;4983052;28;20248;-75
2023/05/05 09:27:35;;;;;;;56.90;53.85;;;20.70;99.90;;;;;;4960675;28;20252;-75
2023/05/05 09:30:02;;;;;;;32.92;30.88;;;20.90;99.90;;;;;;4953261;28;20232;-74
2023/05/05 09:32:28;;;;;;;33.40;31.45;;;21.10;99.90;;;;;;4953259;28;20650;-75
2023/05/05 09:34:59;;;;;;;31.02;29.38;;;21.20;99.90;;;;;;4951843;29;20260;-75
2023/05/05 09:37:29;;;;;;;25.30;23.75;;;21.20;99.90;;;;;;4961878;28;20185;-75
2023/05/05 09:39:57;;;;;;;28.95;27.30;;;21.10;99.90;;;;;;4972656;28;20251;-75
2023/05/05 09:42:23;;;;;;;34.10;32.35;;;21.10;99.90;;;;;;4972434;28;20596;-75
2023/05/05 09:44:50;;;;;;;33.92;32.03;;;21.10;99.90;;;;;;4972537;28;20203;-75
2023/05/05 09:47:18;;;;;;;30.63;28.90;;;21.20;99.90;;;;;;4962789;28;20193;-74
2023/05/05 09:49:44;;;;;;;34.58;32.88;;;21.40;99.90;;;;;;4952865;28;20650;-75
2023/05/05 09:52:14;;;;;;;30.27;28.58;;;21.50;99.90;;;;;;4953142;28;20196;-74
2023/05/05 09:54:41;;;;;;;24.65;23.20;;;21.70;99.90;;;;;;4952862;29;20209;-74
2023/05/05 09:57:07;;;;;;;24.30;22.95;;;21.90;99.90;;;;;;4958711;28;20185;-74
2023/05/05 09:59:33;;;;;;;12.63;11.93;;;22.10;99.90;;;;;;4976708;28;20657;-73
2023/05/05 10:02:12;;;;;;;8.82;8.23;;;22.50;99.90;;;;;;4976721;28;20236;-74
2023/05/05 10:04:38;;;;;;;9.10;8.43;;;22.70;99.90;;;;;;4976787;28;20254;-74
2023/05/05 10:07:04;;;;;;;8.43;7.78;;;22.70;99.90;;;;;;4961470;28;20182;-75
2023/05/05 10:09:33;;;;;;;11.00;10.07;;;22.70;99.90;;;;;;4964064;29;20185;-73
2023/05/05 10:12:00;;;;;;;18.58;17.50;;;22.70;99.90;;;;;;4971257;29;20177;-74
2023/05/05 10:14:29;;;;;;;27.25;25.70;;;22.80;99.90;;;;;;4955260;29;20233;-73
2023/05/05 10:16:55;;;;;;;21.23;20.02;;;23.00;99.90;;;;;;4959097;28;20189;-74
2023/05/05 10:19:23;;;;;;;11.45;10.75;;;23.20;99.90;;;;;;4975566;28;20209;-73
2023/05/05 10:21:50;;;;;;;5.65;5.20;;;23.70;99.90;;;;;;4975631;28;20259;-74
2023/05/05 10:24:26;;;;;;;4.78;4.40;;;24.30;99.90;;;;;;4975515;28;20196;-73
2023/05/05 10:26:55;;;;;;;7.53;6.88;;;24.90;99.90;;;;;;4971396;28;20628;-74
2023/05/05 10:29:38;;;;;;;24.00;22.65;;;25.90;99.90;;;;;;4956581;29;20850;-74
2023/05/05 10:32:16;;;;;;;10.93;10.32;;;26.30;99.90;;;;;;4955388;28;20829;-75
2023/05/05 10:35:08;;;;;;;5.40;5.10;;;26.50;99.90;;;;;;4955940;28;20292;-73
2023/05/05 10:37:37;;;;;;;10.77;10.07;;;26.20;99.90;;;;;;4949040;28;20203;-74
2023/05/05 10:40:03;;;;;;;10.88;10.18;;;26.10;99.90;;;;;;4975140;28;20267;-74
2023/05/05 10:42:30;;;;;;;18.90;17.95;;;26.10;99.90;;;;;;4973876;28;20223;-74
2023/05/05 10:44:56;;;;;;;30.30;28.42;;;26.90;98.60;;;;;;4973510;28;20196;-74
2023/05/05 10:47:23;;;;;;;25.77;24.15;;;27.70;97.40;;;;;;4966751;28;20188;-74
2023/05/05 10:50:05;;;;;;;44.33;42.08;;;28.20;96.50;;;;;;4955688;28;20177;-74
2023/05/05 10:52:39;;;;;;;11.50;10.75;;;28.60;93.60;;;;;;4955499;29;20280;-74
2023/05/05 10:55:14;;;;;;;11.23;10.27;;;28.20;93.60;;;;;;4956005;28;20209;-74
2023/05/05 10:57:42;;;;;;;10.30;9.60;;;27.60;93.70;;;;;;4964391;28;20284;-74
2023/05/05 11:00:09;;;;;;;12.07;8.68;;;27.50;93.20;;;;;;4973993;28;20177;-73
2023/05/05 11:02:35;;;;;;;5.15;4.80;;;27.40;92.20;;;;;;4975820;28;20578;-73
2023/05/05 11:05:20;;;;;;;12.50;11.65;;;27.00;92.10;;;;;;4974809;28;20320;-73
2023/05/05 11:07:48;;;;;;;17.58;16.67;;;26.50;93.80;;;;;;4964584;28;20185;-76
2023/05/05 11:10:16;;;;;;;24.30;23.05;;;26.50;93.40;;;;;;4953693;28;20277;-74
2023/05/05 11:12:54;;;;;;;41.58;39.47;;;26.30;93.50;;;;;;4955308;28;20196;-74
2023/05/05 11:15:28;;;;;;;43.03;40.88;;;25.80;94.50;;;;;;4935034;29;20229;-74
2023/05/05 11:18:02;;;;;;;20.50;19.17;;;25.40;95.50;;;;;;4955955;28;20184;-74
2023/05/05 11:20:56;;;;;;;23.95;22.85;;;25.10;96.50;;;;;;4974614;28;20181;-73
2023/05/05 11:23:22;;;;;;;22.13;20.92;;;24.90;96.90;;;;;;4974126;28;20799;-74
2023/05/05 11:25:50;;;;;;;16.67;15.57;;;24.70;96.80;;;;;;4953562;28;20284;-74
2023/05/05 11:28:24;;;;;;;12.43;11.70;;;24.50;98.30;;;;;;4968262;28;20193;-73
2023/05/05 11:30:59;;;;;;;5.50;5.00;;;24.40;98.80;;;;;;4953202;28;20228;-73
2023/05/05 11:33:33;;;;;;;5.28;4.43;;;24.20;99.90;;;;;;4968205;28;20188;-74
2023/05/05 11:36:01;;;;;;;4.80;4.38;;;24.10;99.90;;;;;;4964423;28;20217;-73
2023/05/05 11:38:45;;;;;;;5.40;5.00;;;24.20;99.90;;;;;;4967795;28;20177;-73
2023/05/05 11:41:32;;;;;;;5.03;4.63;;;24.30;99.90;;;;;;4979632;28;20206;-79
2023/05/05 11:44:15;;;;;;;6.07;4.97;;;24.40;99.90;;;;;;4981656;28;20200;-77
2023/05/05 11:47:03;;;;;;;5.65;4.97;;;24.50;99.50;;;;;;4987591;28;20181;-77
2023/05/05 11:49:30;;;;;;;7.97;7.28;;;24.40;99.90;;;;;;4965832;28;20190;-78
2023/05/05 11:52:00;;;;;;;17.23;11.85;;;24.40;99.50;;;;;;4963448;29;20712;-79
2023/05/05 11:54:27;;;;;;;10.77;9.85;;;24.30;99.70;;;;;;4968336;29;20292;-78
2023/05/05 11:56:54;;;;;;;9.98;8.98;;;24.20;99.90;;;;;;4965116;29;20240;-81
2023/05/05 11:59:22;;;;;;;9.85;8.80;;;24.50;99.90;;;;;;4973939;28;20665;-81
2023/05/05 12:01:47;;;;;;;10.50;9.70;;;24.90;98.70;;;;;;4955879;29;20215;-82
2023/05/05 12:04:14;;;;;;;11.30;10.60;;;25.20;97.30;;;;;;4955350;28;20185;-80
2023/05/05 12:06:41;;;;;;;20.52;19.38;;;25.40;97.40;;;;;;4962772;29;20173;-79
2023/05/05 12:09:14;;;;;;;24.30;22.98;;;25.60;96.10;;;;;;4957077;28;20186;-83
2023/05/05 12:11:54;;;;;;;26.52;25.02;;;25.50;95.70;;;;;;4954306;28;20333;-82
2023/05/05 12:14:21;;;;;;;27.48;26.08;;;25.40;95.30;;;;;;4941906;28;20718;-77
2023/05/05 12:17:00;;;;;;;41.72;39.58;;;25.60;95.20;;;;;;4961022;28;20746;-77
2023/05/05 12:19:32;;;;;;;51.53;48.83;;;25.80;93.10;;;;;;4952113;28;20185;-77
2023/05/05 12:22:01;;;;;;;44.25;41.90;;;25.70;93.20;;;;;;4953000;28;20205;-77
2023/05/05 12:24:29;;;;;;;20.08;18.80;;;25.80;93.80;;;;;;4952818;29;20193;-77
2023/05/05 12:27:06;;;;;;;12.88;12.07;;;25.70;95.60;;;;;;4953803;28;20189;-77
2023/05/05 12:29:31;;;;;;;13.18;12.20;;;26.00;97.00;;;;;;4969756;28;20184;-77
2023/05/05 12:31:59;;;;;;;14.25;13.45;;;25.60;97.70;;;;;;4953831;29;20182;-77
2023/05/05 12:34:25;;;;;;;12.23;11.27;;;25.70;97.50;;;;;;4953478;28;20209;-77
2023/05/05 12:36:52;;;;;;;17.70;16.55;;;26.10;96.70;;;;;;4952363;28;20192;-77
2023/05/05 12:39:17;;;;;;;31.80;30.13;;;26.50;95.60;;;;;;4973008;28;20185;-77
2023/05/05 12:41:43;;;;;;;23.00;21.80;;;26.60;94.60;;;;;;4963799;28;20273;-77
2023/05/05 12:44:09;;;;;;;40.25;38.15;;;26.50;95.40;;;;;;4951561;28;20185;-77
2023/05/05 12:46:45;;;;;;;43.30;40.97;;;26.80;94.70;;;;;;4952928;28;20177;-78
2023/05/05 12:49:11;;;;;;;49.15;46.60;;;26.90;94.80;;;;;;4971859;28;20231;-78
2023/05/05 12:51:38;;;;;;;51.83;49.05;;;27.20;93.30;;;;;;4972043;28;20216;-78
2023/05/05 12:54:05;;;;;;;38.60;36.28;;;27.20;93.60;;;;;;4972189;28;20208;-77
2023/05/05 12:56:37;;;;;;;42.08;39.70;;;27.30;93.40;;;;;;4973560;28;20272;-77
2023/05/05 12:59:11;;;;;;;15.18;14.10;;;27.50;93.20;;;;;;4956326;28;20194;-78
2023/05/05 13:01:47;;;;;;;25.50;24.17;;;27.60;92.20;;;;;;4953042;29;20232;-77
2023/05/05 13:04:13;;;;;;;26.38;24.85;;;27.20;93.30;;;;;;4954134;29;20186;-78
2023/05/05 13:06:41;;;;;;;53.50;50.90;;;26.50;93.10;;;;;;4961894;28;20184;-78
2023/05/05 13:09:11;;;;;;;42.17;39.88;;;25.50;94.50;;;;;;4970953;28;20197;-78
2023/05/05 13:11:38;;;;;;;34.35;32.55;;;25.20;94.90;;;;;;4971962;28;20189;-73
2023/05/05 13:14:05;;;;;;;26.85;25.08;;;25.30;95.00;;;;;;4971344;28;20191;-73
2023/05/05 13:16:32;;;;;;;30.83;29.08;;;25.50;95.10;;;;;;4965224;28;20280;-73
2023/05/05 13:18:57;;;;;;;42.63;39.97;;;25.60;94.40;;;;;;4953301;28;20181;-72
2023/05/05 13:21:23;;;;;;;42.50;39.47;;;25.70;94.10;;;;;;4953012;29;20400;-72
2023/05/05 13:23:49;;;;;;;40.78;38.60;;;25.70;93.10;;;;;;4953371;28;20713;-72
2023/05/05 13:26:15;;;;;;;42.60;40.45;;;25.70;93.60;;;;;;4954760;28;20677;-73
2023/05/05 13:28:40;;;;;;;33.28;31.52;;;25.70;93.70;;;;;;4952700;28;20185;-72
2023/05/05 13:31:07;;;;;;;39.55;37.55;;;25.90;94.10;;;;;;4954877;28;20181;-72
2023/05/05 13:33:33;;;;;;;49.60;47.05;;;26.30;93.50;;;;;;4972696;28;20189;-72
2023/05/05 13:36:00;;;;;;;52.08;49.25;;;26.60;93.20;;;;;;4972452;28;20217;-73
2023/05/05 13:38:26;;;;;;;56.30;53.15;;;26.90;92.80;;;;;;4946865;28;20182;-72
2023/05/05 13:40:52;;;;;;;57.03;54.08;;;26.70;92.80;;;;;;4934881;29;20197;-72
2023/05/05 13:43:18;;;;;;;47.05;44.63;;;26.20;93.20;;;;;;4951855;28;20747;-72
2023/05/05 13:45:44;;;;;;;56.58;53.45;;;26.10;92.90;;;;;;4953227;28;20205;-71
2023/05/05 13:48:10;;;;;;;48.70;46.13;;;25.60;93.30;;;;;;4982108;28;20177;-71
2023/05/05 13:50:36;;;;;;;49.90;47.30;;;25.30;93.40;;;;;;4970783;28;20702;-71
2023/05/05 13:53:02;;;;;;;42.63;40.20;;;25.10;93.40;;;;;;4971474;28;20185;-71
2023/05/05 13:55:28;;;;;;;30.90;28.98;;;24.90;93.40;;;;;;4961435;28;20682;-71
2023/05/05 13:57:54;;;;;;;28.50;26.92;;;25.00;93.70;;;;;;4953954;28;20182;-71
2023/05/05 14:00:20;;;;;;;27.67;26.33;;;24.90;93.50;;;;;;4952159;28;20623;-71
2023/05/05 14:02:48;;;;;;;26.40;25.08;;;25.00;93.50;;;;;;4951970;29;20584;-70
2023/05/05 14:05:14;;;;;;;21.65;20.52;;;24.90;93.40;;;;;;4952246;28;20213;-70
2023/05/05 14:07:41;;;;;;;19.60;18.52;;;24.90;93.50;;;;;;4958377;28;20215;-71
2023/05/05 14:10:07;;;;;;;25.70;24.23;;;25.20;93.50;;;;;;4952152;29;20217;-71
2023/05/05 14:12:33;;;;;;;45.85;43.58;;;25.70;92.90;;;;;;4952355;28;20209;-71
2023/05/05 14:14:59;;;;;;;55.88;53.08;;;26.00;91.30;;;;;;4951316;28;20217;-71
2023/05/05 14:17:25;;;;;;;35.50;33.50;;;26.40;90.10;;;;;;4951556;28;20205;-71
2023/05/05 14:19:50;;;;;;;5.20;4.80;;;27.50;88.70;;;;;;4951987;28;20185;-71
2023/05/05 14:22:16;;;;;;;4.88;4.53;;;28.20;85.30;;;;;;4951796;28;20240;-71
2023/05/05 14:24:42;;;;;;;4.35;4.15;;;27.80;86.20;;;;;;4951788;28;20224;-72
2023/05/05 14:27:09;;;;;;;4.50;4.22;;;27.30;85.50;;;;;;4951596;28;20193;-72
2023/05/05 14:29:35;;;;;;;4.05;3.83;;;26.80;86.60;;;;;;4957919;28;20182;-72
2023/05/05 14:32:00;;;;;;;4.55;4.10;;;26.50;85.60;;;;;;4968333;28;20189;-72
2023/05/05 14:34:26;;;;;;;4.50;4.18;;;26.20;85.50;;;;;;4951871;28;20293;-72
2023/05/05 14:36:52;;;;;;;4.10;3.90;;;26.00;87.30;;;;;;4957576;28;20181;-72
2023/05/05 14:39:18;;;;;;;8.10;7.63;;;25.60;87.60;;;;;;4969432;28;20191;-71
2023/05/05 14:41:43;;;;;;;4.60;4.30;;;25.30;89.30;;;;;;4971277;28;20236;-72
2023/05/05 14:44:09;;;;;;;8.68;8.18;;;25.10;85.50;;;;;;4954052;28;20209;-71
2023/05/05 14:46:35;;;;;;;26.73;25.27;;;24.90;87.80;;;;;;4956542;28;20622;-71
2023/05/05 14:49:01;;;;;;;34.75;32.95;;;24.70;90.00;;;;;;4973781;28;20236;-72
2023/05/05 14:51:26;;;;;;;47.05;44.38;;;24.50;90.10;;;;;;4974870;28;20185;-71
2023/05/05 14:53:52;;;;;;;38.35;36.53;;;24.40;91.10;;;;;;4974781;28;20260;-72
2023/05/05 14:56:21;;;;;;;32.15;30.45;;;24.30;91.60;;;;;;4951539;28;20214;-71
2023/05/05 14:58:47;;;;;;;20.80;19.80;;;24.20;91.70;;;;;;4941433;28;20220;-72
2023/05/05 15:01:12;;;;;;;18.60;17.40;;;23.90;92.50;;;;;;4953694;29;20213;-71
2023/05/05 15:03:38;;;;;;;15.85;14.77;;;23.80;92.30;;;;;;4955123;29;20241;-72
2023/05/05 15:06:04;;;;;;;13.43;12.32;;;23.60;92.30;;;;;;4954940;28;20215;-74
2023/05/05 15:08:30;;;;;;;10.85;10.05;;;23.60;92.50;;;;;;4971935;28;20181;-70
2023/05/05 15:10:55;;;;;;;9.68;9.18;;;23.50;92.90;;;;;;4973193;28;20268;-71
2023/05/05 15:13:21;;;;;;;8.05;7.55;;;23.50;93.60;;;;;;4974255;28;20292;-70
2023/05/05 15:15:47;;;;;;;8.05;7.35;;;23.40;94.40;;;;;;4994562;23;20260;-76
2023/05/05 15:18:13;;;;;;;6.57;6.18;;;23.40;94.50;;;;;;4988697;28;20186;-75
2023/05/05 15:20:39;;;;;;;6.95;6.45;;;23.40;94.20;;;;;;4993652;28;20186;-75
2023/05/05 15:23:05;;;;;;;7.03;6.35;;;23.40;93.90;;;;;;4993748;28;20751;-74
2023/05/05 15:25:30;;;;;;;6.00;5.72;;;23.30;94.10;;;;;;4983139;28;20197;-75
2023/05/05 15:27:57;;;;;;;5.30;5.07;;;23.20;94.40;;;;;;4959920;28;20186;-75
2023/05/05 15:30:24;;;;;;;4.68;4.43;;;23.20;94.60;;;;;;4955185;28;20177;-75
2023/05/05 15:32:50;;;;;;;5.68;4.50;;;23.00;95.10;;;;;;4955667;28;20196;-75
2023/05/05 15:35:15;;;;;;;4.45;4.25;;;22.80;94.50;;;;;;4953766;28;20201;-74
2023/05/05 15:37:41;;;;;;;5.45;4.95;;;22.80;94.50;;;;;;4965835;28;20239;-75